createdAt,value
2023-05-05T00:01:37.477Z,100666.08
2023-05-05T00:04:08.130Z,100665.71
2023-05-05T00:06:38.737Z,100670.18
2023-05-05T00:09:09.262Z,100667.92
2023-05-05T00:11:39.705Z,100669.46
2023-05-05T00:14:11.190Z,100670.16
2023-05-05T00:16:41.699Z,100669.45
2023-05-05T00:19:12.223Z,100670.98
2023-05-05T00:21:42.664Z,100670.45
2023-05-05T00:24:13.087Z,100664.40
2023-05-05T00:26:43.529Z,100662.30
2023-05-05T00:29:14.012Z,100663.17
2023-05-05T00:31:44.469Z,100663.17
2023-05-05T00:34:14.921Z,100661.61
2023-05-05T00:36:45.412Z,100662.44
2023-05-05T00:39:15.953Z,100657.25
2023-05-05T00:41:46.412Z,100649.46
2023-05-05T00:44:16.877Z,100650.14
2023-05-05T00:46:47.573Z,100651.34
2023-05-05T00:49:18.172Z,100650.48
2023-05-05T00:51:48.672Z,100650.31
2023-05-05T00:54:19.170Z,100652.04
2023-05-05T00:56:51.146Z,100649.44
2023-05-05T00:59:22.050Z,100648.04
2023-05-05T01:01:52.513Z,100644.23
2023-05-05T01:04:23.100Z,100643.70
2023-05-05T01:07:04.977Z,100639.04
2023-05-05T01:09:48.201Z,100643.85
2023-05-05T01:12:28.253Z,100637.45
2023-05-05T01:15:12.292Z,100635.55
2023-05-05T01:17:49.000Z,100637.77
2023-05-05T01:20:26.388Z,100633.79
2023-05-05T01:23:03.930Z,100632.05
2023-05-05T01:26:04.087Z,100632.20
2023-05-05T01:28:49.858Z,100629.61
2023-05-05T01:31:33.666Z,100628.39
2023-05-05T01:34:08.558Z,100632.36
2023-05-05T01:36:42.958Z,100621.48
2023-05-05T01:39:17.425Z,100617.52
2023-05-05T01:41:50.548Z,100619.58
2023-05-05T01:44:21.784Z,100616.45
2023-05-05T01:46:55.630Z,100617.48
2023-05-05T01:49:27.655Z,100622.30
2023-05-05T01:51:59.640Z,100614.86
2023-05-05T01:54:33.241Z,100615.20
2023-05-05T01:57:06.551Z,100617.95
2023-05-05T01:59:39.930Z,100615.50
2023-05-05T02:02:12.284Z,100616.86
2023-05-05T02:04:45.388Z,100623.40
2023-05-05T02:07:18.013Z,100621.65
2023-05-05T02:09:49.318Z,100622.15
2023-05-05T02:12:21.976Z,100618.52
2023-05-05T02:14:54.359Z,100617.32
2023-05-05T02:17:26.606Z,100619.20
2023-05-05T02:19:59.991Z,100612.97
2023-05-05T02:22:31.674Z,100615.19
2023-05-05T02:25:00.969Z,100614.31
2023-05-05T02:27:34.970Z,100611.55
2023-05-05T02:30:09.774Z,100613.27
2023-05-05T02:32:45.904Z,100612.20
2023-05-05T02:35:20.996Z,100608.90
2023-05-05T02:38:00.129Z,100609.92
2023-05-05T02:40:34.273Z,100609.20
2023-05-05T02:43:08.455Z,100609.70
2023-05-05T02:45:39.346Z,100606.44
2023-05-05T02:48:13.070Z,100605.91
2023-05-05T02:50:43.984Z,100606.76
2023-05-05T02:53:27.914Z,100607.24
2023-05-05T02:56:06.990Z,100608.60
2023-05-05T02:58:47.303Z,100612.36
2023-05-05T03:01:41.505Z,100615.45
2023-05-05T03:04:16.724Z,100615.45
2023-05-05T03:06:54.977Z,100616.45
2023-05-05T03:09:31.186Z,100614.52
2023-05-05T03:12:05.608Z,100616.41
2023-05-05T03:14:44.232Z,100621.71
2023-05-05T03:17:18.604Z,100623.43
2023-05-05T03:19:50.417Z,100625.83
2023-05-05T03:22:21.260Z,100624.41
2023-05-05T03:24:53.711Z,100625.92
2023-05-05T03:27:26.869Z,100631.41
2023-05-05T03:29:57.670Z,100631.55
2023-05-05T03:32:30.776Z,100632.23
2023-05-05T03:35:01.415Z,100636.00
2023-05-05T03:37:34.856Z,100634.95
2023-05-05T03:40:06.445Z,100634.23
2023-05-05T03:42:37.241Z,100632.31
2023-05-05T03:45:09.260Z,100632.30
2023-05-05T03:47:40.264Z,100638.48
2023-05-05T03:50:12.250Z,100632.08
2023-05-05T03:52:43.105Z,100635.33
2023-05-05T03:55:13.834Z,100640.13
2023-05-05T03:57:46.019Z,100640.95
2023-05-05T04:00:17.855Z,100646.29
2023-05-05T04:02:49.850Z,100640.77
2023-05-05T04:05:19.951Z,100639.02
2023-05-05T04:07:50.811Z,100638.11
2023-05-05T04:10:21.502Z,100631.73
2023-05-05T04:12:52.261Z,100632.23
2023-05-05T04:15:22.767Z,100634.63
2023-05-05T04:17:53.453Z,100633.75
2023-05-05T04:20:24.216Z,100634.26
2023-05-05T04:22:54.673Z,100635.96
2023-05-05T04:25:25.567Z,100634.21
2023-05-05T04:27:56.443Z,100636.95
2023-05-05T04:30:27.312Z,100639.88
2023-05-05T04:32:57.822Z,100640.20
2023-05-05T04:35:28.556Z,100642.25
2023-05-05T04:37:59.200Z,100642.91
2023-05-05T04:40:30.003Z,100647.39
2023-05-05T04:43:00.949Z,100647.56
2023-05-05T04:45:32.473Z,100647.55
2023-05-05T04:48:04.406Z,100652.20
2023-05-05T04:50:33.369Z,100655.98
2023-05-05T04:53:03.857Z,100656.34
2023-05-05T04:55:35.320Z,100659.61
2023-05-05T04:58:05.879Z,100660.97
2023-05-05T05:00:38.190Z,100660.14
2023-05-05T05:03:10.057Z,100657.62
2023-05-05T05:05:39.070Z,100657.15
2023-05-05T05:08:09.981Z,100660.95
2023-05-05T05:10:40.474Z,100660.98
2023-05-05T05:13:12.674Z,100662.91
2023-05-05T05:15:44.341Z,100661.55
2023-05-05T05:18:15.483Z,100659.52
2023-05-05T05:20:46.477Z,100665.90
2023-05-05T05:23:17.845Z,100664.88
2023-05-05T05:25:48.878Z,100664.89
2023-05-05T05:28:19.894Z,100668.17
2023-05-05T05:30:53.828Z,100671.64
2023-05-05T05:33:24.470Z,100675.27
2023-05-05T05:35:55.156Z,100674.95
2023-05-05T05:38:25.945Z,100676.35
2023-05-05T05:40:58.238Z,100676.90
2023-05-05T05:43:29.755Z,100679.48
2023-05-05T05:46:00.337Z,100685.20
2023-05-05T05:48:31.493Z,100689.35
2023-05-05T05:51:02.580Z,100691.95
2023-05-05T05:53:33.346Z,100697.11
2023-05-05T05:56:04.263Z,100691.80
2023-05-05T05:58:38.197Z,100695.98
2023-05-05T06:01:08.930Z,100696.14
2023-05-05T06:03:39.615Z,100696.85
2023-05-05T06:06:10.591Z,100695.66
2023-05-05T06:08:41.225Z,100696.73
2023-05-05T06:11:11.799Z,100698.45
2023-05-05T06:13:42.354Z,100699.84
2023-05-05T06:16:12.952Z,100697.27
2023-05-05T06:18:44.194Z,100700.04
2023-05-05T06:21:14.732Z,100698.16
2023-05-05T06:23:45.209Z,100697.67
2023-05-05T06:26:15.859Z,100694.55
2023-05-05T06:28:46.358Z,100698.71
2023-05-05T06:31:17.600Z,100701.65
2023-05-05T06:33:48.065Z,100702.70
2023-05-05T06:36:18.652Z,100701.52
2023-05-05T06:38:50.314Z,100701.20
2023-05-05T06:41:21.353Z,100696.40
2023-05-05T06:43:51.952Z,100698.48
2023-05-05T06:46:22.416Z,100700.04
2023-05-05T06:48:52.999Z,100701.78
2023-05-05T06:51:23.867Z,100703.88
2023-05-05T06:53:54.339Z,100704.77
2023-05-05T06:56:25.032Z,100702.73
2023-05-05T06:58:55.507Z,100700.16
2023-05-05T07:01:26.295Z,100694.81
2023-05-05T07:03:57.163Z,100695.86
2023-05-05T07:06:27.769Z,100696.59
2023-05-05T07:08:58.264Z,100696.95
2023-05-05T07:11:28.687Z,100694.05
2023-05-05T07:13:59.174Z,100691.48
2023-05-05T07:16:29.754Z,100693.90
2023-05-05T07:19:00.930Z,100699.42
2023-05-05T07:21:31.673Z,100698.42
2023-05-05T07:24:03.113Z,100696.23
2023-05-05T07:26:33.829Z,100692.13
2023-05-05T07:29:07.152Z,100691.95
2023-05-05T07:31:37.632Z,100693.54
2023-05-05T07:34:08.127Z,100691.50
2023-05-05T07:36:38.611Z,100691.88
2023-05-05T07:39:09.159Z,100694.48
2023-05-05T07:41:39.766Z,100691.59
2023-05-05T07:44:11.463Z,100689.39
2023-05-05T07:46:41.934Z,100688.21
2023-05-05T07:49:12.392Z,100687.89
2023-05-05T07:51:43.118Z,100684.27
2023-05-05T07:54:13.833Z,100687.73
2023-05-05T07:56:44.607Z,100691.05
2023-05-05T07:59:15.153Z,100688.32
2023-05-05T08:01:45.569Z,100686.27
2023-05-05T08:04:16.084Z,100688.33
2023-05-05T08:06:46.650Z,100686.11
2023-05-05T08:09:17.112Z,100686.99
2023-05-05T08:11:47.560Z,100684.42
2023-05-05T08:14:18.090Z,100684.27
2023-05-05T08:16:48.539Z,100685.14
2023-05-05T08:19:28.782Z,100684.48
2023-05-05T08:22:01.584Z,100685.02
2023-05-05T08:24:32.188Z,100677.45
2023-05-05T08:27:02.691Z,100679.71
2023-05-05T08:29:33.138Z,100685.06
2023-05-05T08:32:03.570Z,100680.08
2023-05-05T08:34:34.025Z,100681.66
2023-05-05T08:37:04.469Z,100681.70
2023-05-05T08:39:34.924Z,100682.05
2023-05-05T08:42:05.852Z,100682.08
2023-05-05T08:44:36.295Z,100685.39
2023-05-05T08:47:10.197Z,100685.59
2023-05-05T08:49:47.973Z,100687.48
2023-05-05T08:52:23.733Z,100684.39
2023-05-05T08:55:00.902Z,100683.36
2023-05-05T08:57:39.500Z,100679.60
2023-05-05T09:00:13.751Z,100678.77
2023-05-05T09:02:46.659Z,100675.87
2023-05-05T09:05:18.016Z,100677.63
2023-05-05T09:07:48.982Z,100676.83
2023-05-05T09:10:20.219Z,100673.42
2023-05-05T09:12:51.581Z,100669.84
2023-05-05T09:15:22.235Z,100666.06
2023-05-05T09:17:52.865Z,100667.83
2023-05-05T09:20:24.375Z,100669.73
2023-05-05T09:22:54.806Z,100671.50
2023-05-05T09:25:25.236Z,100670.48
2023-05-05T09:27:56.042Z,100667.55
2023-05-05T09:30:27.945Z,100664.64
2023-05-05T09:32:58.445Z,100666.90
2023-05-05T09:35:30.356Z,100665.55
2023-05-05T09:38:11.653Z,100666.93
2023-05-05T09:40:49.009Z,100668.17
2023-05-05T09:43:20.826Z,100661.77
2023-05-05T09:45:50.336Z,100665.95
2023-05-05T09:48:29.003Z,100660.26
2023-05-05T09:51:00.190Z,100660.60
2023-05-05T09:53:41.849Z,100662.53
2023-05-05T09:56:12.310Z,100664.94
2023-05-05T09:58:43.202Z,100661.50
2023-05-05T10:01:24.529Z,100659.80
2023-05-05T10:03:55.024Z,100661.52
2023-05-05T10:06:42.698Z,100658.27
2023-05-05T10:09:13.144Z,100655.34
2023-05-05T10:11:46.191Z,100657.06
2023-05-05T10:14:18.758Z,100656.56
2023-05-05T10:16:52.212Z,100655.36
2023-05-05T10:19:24.251Z,100654.48
2023-05-05T10:22:00.508Z,100655.36
2023-05-05T10:24:39.799Z,100659.67
2023-05-05T10:27:16.661Z,100649.13
2023-05-05T10:29:53.426Z,100647.77
2023-05-05T10:32:54.381Z,100646.52
2023-05-05T10:35:27.293Z,100642.05
2023-05-05T10:37:59.398Z,100641.00
2023-05-05T10:40:30.106Z,100645.32
2023-05-05T10:43:01.034Z,100645.33
2023-05-05T10:45:32.275Z,100641.85
2023-05-05T10:48:09.947Z,100638.04
2023-05-05T10:50:47.718Z,100637.52
2023-05-05T10:53:24.475Z,100634.73
2023-05-05T10:56:01.384Z,100630.75
2023-05-05T10:58:55.626Z,100627.45
2023-05-05T11:01:34.507Z,100623.45
2023-05-05T11:04:22.686Z,100624.69
2023-05-05T11:07:27.797Z,100625.02
2023-05-05T11:10:01.414Z,100622.77
2023-05-05T11:12:33.210Z,100624.13
2023-05-05T11:15:19.717Z,100619.96
2023-05-05T11:17:50.335Z,100622.36
2023-05-05T11:20:40.840Z,100618.88
2023-05-05T11:23:25.358Z,100611.05
2023-05-05T11:25:57.680Z,100611.22
2023-05-05T11:28:31.150Z,100602.87
2023-05-05T11:31:20.948Z,100600.42
2023-05-05T11:33:51.517Z,100593.84
2023-05-05T11:36:38.240Z,100589.45
2023-05-05T11:39:20.991Z,100586.84
2023-05-05T11:42:17.610Z,100585.41
2023-05-05T11:44:48.482Z,100586.61
2023-05-05T11:47:32.741Z,100583.29
2023-05-05T11:50:19.020Z,100588.29
2023-05-05T11:52:49.948Z,100580.80
2023-05-05T11:55:24.130Z,100578.73
2023-05-05T11:57:54.625Z,100580.62
2023-05-05T12:00:34.800Z,100579.73
2023-05-05T12:03:06.490Z,100574.99
2023-05-05T12:05:37.272Z,100580.88
2023-05-05T12:08:07.884Z,100582.21
2023-05-05T12:10:38.389Z,100578.72
2023-05-05T12:13:20.563Z,100570.89
2023-05-05T12:15:51.339Z,100568.42
2023-05-05T12:18:22.452Z,100569.08
2023-05-05T12:20:52.968Z,100569.42
2023-05-05T12:23:23.833Z,100561.09
2023-05-05T12:25:54.277Z,100563.64
2023-05-05T12:28:24.699Z,100564.66
2023-05-05T12:31:01.625Z,100564.29
2023-05-05T12:33:39.540Z,100561.10
2023-05-05T12:36:10.855Z,100557.08
2023-05-05T12:38:41.957Z,100562.04
2023-05-05T12:41:18.579Z,100559.57
2023-05-05T12:43:49.015Z,100554.13
2023-05-05T12:46:19.502Z,100558.08
2023-05-05T12:49:04.781Z,100557.01
2023-05-05T12:51:36.505Z,100552.29
2023-05-05T12:54:06.300Z,100552.61
2023-05-05T12:56:41.734Z,100548.95
2023-05-05T12:59:13.512Z,100558.79
2023-05-05T13:01:53.608Z,100553.17
2023-05-05T13:04:25.815Z,100551.27
2023-05-05T13:07:13.579Z,100543.27
2023-05-05T13:09:44.714Z,100538.14
2023-05-05T13:12:15.272Z,100533.11
2023-05-05T13:14:46.837Z,100527.35
2023-05-05T13:17:15.898Z,100524.59
2023-05-05T13:19:47.139Z,100522.17
2023-05-05T13:22:18.014Z,100523.58
2023-05-05T13:24:52.146Z,100522.73
2023-05-05T13:27:23.769Z,100518.88
2023-05-05T13:29:54.243Z,100519.94
2023-05-05T13:32:24.724Z,100520.84
2023-05-05T13:34:55.285Z,100519.80
2023-05-05T13:37:25.750Z,100519.27
2023-05-05T13:39:59.417Z,100520.98
2023-05-05T13:42:29.935Z,100515.02
2023-05-05T13:45:00.381Z,100506.96
2023-05-05T13:47:30.817Z,100509.70
2023-05-05T13:50:02.084Z,100499.76
2023-05-05T13:52:33.428Z,100498.42
2023-05-05T13:55:04.207Z,100494.04
2023-05-05T13:57:34.671Z,100494.11
2023-05-05T14:00:05.866Z,100487.20
2023-05-05T14:02:38.160Z,100482.57
2023-05-05T14:05:10.852Z,100478.65
2023-05-05T14:07:41.729Z,100479.05
2023-05-05T14:10:12.758Z,100475.00
2023-05-05T14:12:43.622Z,100473.02
2023-05-05T14:15:14.273Z,100474.42
2023-05-05T14:17:44.785Z,100470.92
2023-05-05T14:20:15.938Z,100468.89
2023-05-05T14:22:48.743Z,100462.75
2023-05-05T14:25:20.026Z,100460.18
2023-05-05T14:27:50.892Z,100463.02
2023-05-05T14:30:21.329Z,100464.60
2023-05-05T14:32:51.779Z,100469.92
2023-05-05T14:35:22.468Z,100467.39
2023-05-05T14:37:52.919Z,100467.73
2023-05-05T14:40:23.624Z,100465.20
2023-05-05T14:42:54.054Z,100463.22
2023-05-05T14:45:24.530Z,100459.94
2023-05-05T14:47:55.103Z,100457.64
2023-05-05T14:50:25.796Z,100456.33
2023-05-05T14:52:56.344Z,100457.83
2023-05-05T14:55:27.033Z,100454.07
2023-05-05T14:57:57.469Z,100455.02
2023-05-05T15:00:28.589Z,100454.80
2023-05-05T15:02:59.126Z,100457.02
2023-05-05T15:05:29.716Z,100456.91
2023-05-05T15:08:00.158Z,100460.32
2023-05-05T15:10:30.668Z,100455.51
2023-05-05T15:13:01.187Z,100446.11
2023-05-05T15:15:31.664Z,100444.05
2023-05-05T15:18:02.203Z,100444.23
2023-05-05T15:20:32.779Z,100438.34
2023-05-05T15:23:04.205Z,100437.73
2023-05-05T15:25:33.154Z,100434.28
2023-05-05T15:28:03.639Z,100430.08
2023-05-05T15:30:34.462Z,100428.00
2023-05-05T15:33:05.011Z,100429.18
2023-05-05T15:35:36.246Z,100433.99
2023-05-05T15:38:06.789Z,100439.10
2023-05-05T15:40:37.259Z,100434.91
2023-05-05T15:43:08.126Z,100431.73
2023-05-05T15:45:41.209Z,100433.10
2023-05-05T15:48:11.741Z,100433.48
2023-05-05T15:50:42.294Z,100432.98
2023-05-05T15:53:12.761Z,100434.33
2023-05-05T15:55:43.192Z,100428.67
2023-05-05T15:58:13.675Z,100427.46
2023-05-05T16:00:44.146Z,100429.61
2023-05-05T16:03:14.784Z,100428.25
2023-05-05T16:05:45.414Z,100430.21
2023-05-05T16:08:15.903Z,100428.54
2023-05-05T16:10:46.332Z,100427.18
2023-05-05T16:13:16.848Z,100424.46
2023-05-05T16:15:47.371Z,100422.23
2023-05-05T16:18:17.869Z,100417.39
2023-05-05T16:20:48.364Z,100415.31
2023-05-05T16:23:18.856Z,100413.69
2023-05-05T16:25:49.303Z,100413.11
2023-05-05T16:28:19.832Z,100409.03
2023-05-05T16:30:50.259Z,100404.25
2023-05-05T16:33:20.761Z,100403.81
2023-05-05T16:35:51.183Z,100401.65
2023-05-05T16:38:21.693Z,100403.17
2023-05-05T16:40:52.207Z,100404.64
2023-05-05T16:43:22.856Z,100403.53
2023-05-05T16:45:53.376Z,100400.80
2023-05-05T16:48:23.894Z,100404.52
2023-05-05T16:50:56.479Z,100402.31
2023-05-05T16:53:27.335Z,100402.20
2023-05-05T16:55:57.912Z,100403.12
2023-05-05T16:58:28.611Z,100403.39
2023-05-05T17:01:01.843Z,100403.30
2023-05-05T17:03:32.346Z,100403.04
2023-05-05T17:06:03.312Z,100404.16
2023-05-05T17:08:33.808Z,100405.62
2023-05-05T17:11:04.302Z,100409.36
2023-05-05T17:13:34.778Z,100409.62
2023-05-05T17:16:05.732Z,100409.86
2023-05-05T17:18:37.171Z,100416.23
2023-05-05T17:21:08.351Z,100419.77
2023-05-05T17:23:38.805Z,100421.45
2023-05-05T17:26:09.363Z,100423.77
2023-05-05T17:28:39.835Z,100426.06
2023-05-05T17:31:10.822Z,100424.40
2023-05-05T17:33:41.327Z,100428.45
2023-05-05T17:36:12.421Z,100427.13
2023-05-05T17:38:42.860Z,100431.89
2023-05-05T17:41:13.370Z,100431.75
2023-05-05T17:43:43.902Z,100430.05
2023-05-05T17:46:14.471Z,100429.40
2023-05-05T17:48:45.108Z,100429.29
2023-05-05T17:51:15.614Z,100428.45
2023-05-05T17:53:46.188Z,100429.19
2023-05-05T17:56:16.666Z,100425.61
2023-05-05T17:58:48.221Z,100426.89
2023-05-05T18:01:25.513Z,100427.96
2023-05-05T18:03:56.110Z,100429.44
2023-05-05T18:06:27.015Z,100427.58
2023-05-05T18:08:57.570Z,100434.09
2023-05-05T18:11:31.014Z,100434.67
2023-05-05T18:14:01.593Z,100435.96
2023-05-05T18:16:32.075Z,100436.89
2023-05-05T18:19:02.502Z,100434.69
2023-05-05T18:21:33.194Z,100441.52
2023-05-05T18:24:15.853Z,100444.52
2023-05-05T18:26:52.483Z,100450.45
2023-05-05T18:29:24.283Z,100459.67
2023-05-05T18:31:55.190Z,100463.23
2023-05-05T18:34:26.357Z,100472.15
2023-05-05T18:36:57.199Z,100478.47
2023-05-05T18:39:28.206Z,100475.92
2023-05-05T18:41:58.654Z,100479.83
2023-05-05T18:44:29.160Z,100481.80
2023-05-05T18:46:59.912Z,100485.15
2023-05-05T18:49:31.564Z,100487.95
2023-05-05T18:52:02.283Z,100489.23
2023-05-05T18:54:32.804Z,100492.59
2023-05-05T18:57:03.687Z,100496.45
2023-05-05T18:59:34.137Z,100495.13
2023-05-05T19:02:04.568Z,100495.15
2023-05-05T19:04:37.508Z,100492.06
2023-05-05T19:07:08.423Z,100492.80
2023-05-05T19:09:38.871Z,100492.83
2023-05-05T19:12:09.759Z,100493.41
2023-05-05T19:14:40.237Z,100495.20
2023-05-05T19:17:10.677Z,100495.61
2023-05-05T19:19:41.171Z,100494.23
2023-05-05T19:22:11.617Z,100491.14
2023-05-05T19:24:42.132Z,100489.45
2023-05-05T19:27:16.404Z,100485.14
2023-05-05T19:29:52.050Z,100482.73
2023-05-05T19:32:23.348Z,100483.31
2023-05-05T19:34:54.605Z,100480.91
2023-05-05T19:37:25.093Z,100480.93
2023-05-05T19:39:56.572Z,100476.61
2023-05-05T19:42:27.542Z,100477.33
2023-05-05T19:44:58.268Z,100479.63
2023-05-05T19:47:28.866Z,100480.35
2023-05-05T19:49:59.660Z,100482.09
2023-05-05T19:52:30.182Z,100481.10
2023-05-05T19:55:00.718Z,100477.66
2023-05-05T19:57:31.240Z,100479.25
2023-05-05T20:00:02.117Z,100480.15
2023-05-05T20:02:36.740Z,100480.70
2023-05-05T20:05:09.007Z,100482.30
2023-05-05T20:07:39.509Z,100484.57
2023-05-05T20:10:14.186Z,100486.34
2023-05-05T20:12:48.251Z,100483.41
2023-05-05T20:15:20.352Z,100474.24
2023-05-05T20:17:51.091Z,100480.00
2023-05-05T20:20:24.015Z,100477.41
2023-05-05T20:22:54.514Z,100472.23
2023-05-05T20:25:25.091Z,100465.86
2023-05-05T20:27:55.593Z,100458.60
2023-05-05T20:30:26.876Z,100458.96
2023-05-05T20:32:58.087Z,100452.55
2023-05-05T20:35:28.712Z,100452.41
2023-05-05T20:37:59.132Z,100449.48
2023-05-05T20:40:30.313Z,100445.69
2023-05-05T20:43:00.842Z,100445.54
2023-05-05T20:45:31.868Z,100437.59
2023-05-05T20:48:02.383Z,100436.56
2023-05-05T20:50:33.169Z,100435.73
2023-05-05T20:53:03.630Z,100437.30
2023-05-05T20:55:34.134Z,100437.14
2023-05-05T20:58:05.419Z,100435.61
2023-05-05T21:00:36.261Z,100439.24
2023-05-05T21:03:06.853Z,100437.52
2023-05-05T21:05:37.457Z,100433.73
2023-05-05T21:08:08.718Z,100437.72
2023-05-05T21:10:40.133Z,100437.90
2023-05-05T21:13:10.751Z,100439.14
2023-05-05T21:15:41.440Z,100442.08
2023-05-05T21:18:11.895Z,100439.48
2023-05-05T21:20:42.513Z,100439.67
2023-05-05T21:23:13.041Z,100433.98
2023-05-05T21:25:43.483Z,100432.09
2023-05-05T21:28:13.953Z,100430.35
2023-05-05T21:30:46.625Z,100429.69
2023-05-05T21:33:18.850Z,100423.98
2023-05-05T21:35:49.326Z,100422.56
2023-05-05T21:38:19.772Z,100425.15
2023-05-05T21:40:50.391Z,100427.77
2023-05-05T21:43:20.952Z,100426.03
2023-05-05T21:45:58.647Z,100427.23
2023-05-05T21:48:29.199Z,100427.25
2023-05-05T21:50:59.819Z,100428.64
2023-05-05T21:53:30.921Z,100429.68
2023-05-05T21:56:01.447Z,100429.70
2023-05-05T21:58:31.934Z,100430.73
2023-05-05T22:01:02.589Z,100430.89
2023-05-05T22:03:34.551Z,100427.27
2023-05-05T22:06:05.437Z,100429.02
2023-05-05T22:08:35.965Z,100429.86
2023-05-05T22:11:06.821Z,100432.28
2023-05-05T22:13:39.062Z,100436.79
2023-05-05T22:16:10.818Z,100440.39
2023-05-05T22:18:39.777Z,100429.16
2023-05-05T22:21:10.361Z,100422.80
2023-05-05T22:23:41.938Z,100419.50
2023-05-05T22:26:11.143Z,100420.70
2023-05-05T22:28:41.624Z,100416.91
2023-05-05T22:31:12.192Z,100415.01
2023-05-05T22:33:42.646Z,100413.78
2023-05-05T22:36:13.221Z,100415.86
2023-05-05T22:38:43.694Z,100412.23
2023-05-05T22:41:14.357Z,100408.94
2023-05-05T22:43:44.843Z,100407.39
2023-05-05T22:46:15.319Z,100407.73
2023-05-05T22:48:46.180Z,100408.43
2023-05-05T22:51:16.692Z,100407.73
2023-05-05T22:53:47.125Z,100412.20
2023-05-05T22:56:17.979Z,100413.20
2023-05-05T22:58:48.512Z,100414.24
2023-05-05T23:01:19.050Z,100415.28
2023-05-05T23:03:49.531Z,100418.90
2023-05-05T23:06:20.104Z,100425.10
2023-05-05T23:08:50.633Z,100421.98
2023-05-05T23:11:21.177Z,100418.02
2023-05-05T23:13:51.685Z,100415.09
2023-05-05T23:16:22.165Z,100413.17
2023-05-05T23:18:52.628Z,100408.50
2023-05-05T23:21:23.173Z,100404.36
2023-05-05T23:23:55.055Z,100404.35
2023-05-05T23:26:25.940Z,100401.09
2023-05-05T23:28:56.410Z,100401.59
2023-05-05T23:31:26.954Z,100399.34
2023-05-05T23:33:57.420Z,100398.64
2023-05-05T23:36:27.934Z,100392.08
2023-05-05T23:38:58.373Z,100388.12
2023-05-05T23:41:28.821Z,100388.29
2023-05-05T23:43:59.406Z,100384.99
2023-05-05T23:46:29.931Z,100381.89
2023-05-05T23:49:00.457Z,100378.95
2023-05-05T23:51:31.022Z,100374.11
2023-05-05T23:54:01.452Z,100365.30
2023-05-05T23:56:31.964Z,100362.04
2023-05-05T23:59:02.741Z,100361.34
